createdAt,value
2019-01-24T00:00:44.975Z,40.80
2019-01-24T00:01:45.038Z,42.00
2019-01-24T00:02:44.784Z,41.40
2019-01-24T00:03:44.704Z,40.60
2019-01-24T00:04:44.646Z,42.60
2019-01-24T00:05:44.524Z,42.90
2019-01-24T00:06:44.425Z,42.30
2019-01-24T00:07:44.461Z,42.30
2019-01-24T00:08:44.258Z,43.20
2019-01-24T00:09:44.192Z,43.40
2019-01-24T00:10:44.278Z,41.30
2019-01-24T00:11:43.975Z,43.00
2019-01-24T00:12:44.090Z,43.20
2019-01-24T00:13:43.822Z,43.40
2019-01-24T00:14:43.895Z,43.40
2019-01-24T00:15:43.613Z,42.70
2019-01-24T00:16:43.703Z,42.60
2019-01-24T00:17:43.432Z,44.30
2019-01-24T00:18:43.512Z,43.00
2019-01-24T00:19:43.270Z,43.20
2019-01-24T00:20:43.321Z,43.60
2019-01-24T00:21:43.075Z,44.10
2019-01-24T00:22:43.138Z,44.10
2019-01-24T00:23:42.905Z,43.70
2019-01-24T00:24:42.978Z,44.60
2019-01-24T00:25:42.718Z,43.90
2019-01-24T00:26:42.747Z,44.70
2019-01-24T00:27:42.545Z,44.40
2019-01-24T00:28:42.553Z,44.90
2019-01-24T00:29:42.374Z,44.90
2019-01-24T00:30:42.361Z,44.30
2019-01-24T00:31:42.187Z,44.00
2019-01-24T00:32:42.169Z,43.70
2019-01-24T00:33:42.008Z,44.20
2019-01-24T00:34:42.019Z,45.00
2019-01-24T00:35:41.838Z,44.20
2019-01-24T00:36:41.741Z,45.30
2019-01-24T00:37:41.796Z,46.10
2019-01-24T00:38:41.559Z,45.70
2019-01-24T00:39:41.489Z,44.40
2019-01-24T00:40:41.404Z,44.30
2019-01-24T00:41:41.294Z,42.40
2019-01-24T00:42:41.198Z,44.20
2019-01-24T00:43:41.219Z,42.70
2019-01-24T00:44:41.039Z,41.80
2019-01-24T00:45:40.930Z,42.00
2019-01-24T00:46:41.041Z,41.10
2019-01-24T00:47:40.754Z,42.10
2019-01-24T00:48:40.846Z,42.70
2019-01-24T00:49:40.593Z,43.20
2019-01-24T00:50:40.652Z,43.00
2019-01-24T00:51:40.389Z,40.90
2019-01-24T00:52:40.495Z,42.00
2019-01-24T00:53:40.218Z,41.50
2019-01-24T00:54:40.302Z,42.60
2019-01-24T00:55:40.029Z,42.30
2019-01-24T00:56:39.942Z,41.40
2019-01-24T00:57:39.879Z,43.00
2019-01-24T00:58:39.761Z,43.20
2019-01-24T00:59:39.684Z,42.00
2019-01-24T01:00:39.692Z,42.60
2019-01-24T01:01:39.495Z,43.00
2019-01-24T01:02:39.407Z,43.90
2019-01-24T01:03:39.509Z,41.60
2019-01-24T01:04:39.245Z,43.70
2019-01-24T01:05:39.141Z,41.70
2019-01-24T01:06:39.121Z,42.30
2019-01-24T01:07:38.954Z,43.40
2019-01-24T01:08:38.869Z,41.20
2019-01-24T01:09:38.965Z,40.70
2019-01-24T01:10:38.690Z,42.20
2019-01-24T01:11:38.603Z,41.60
2019-01-24T01:12:38.547Z,38.70
2019-01-24T01:13:38.423Z,39.40
2019-01-24T01:14:38.343Z,41.50
2019-01-24T01:15:38.358Z,42.00
2019-01-24T01:16:38.159Z,42.50
2019-01-24T01:17:38.170Z,39.90
2019-01-24T01:18:37.975Z,41.10
2019-01-24T01:19:38.012Z,40.00
2019-01-24T01:20:37.804Z,39.70
2019-01-24T01:21:37.789Z,40.70
2019-01-24T01:22:37.612Z,40.70
2019-01-24T01:23:37.599Z,41.40
2019-01-24T01:24:37.432Z,40.50
2019-01-24T01:25:37.359Z,41.10
2019-01-24T01:26:37.257Z,41.40
2019-01-24T01:27:37.209Z,40.60
2019-01-24T01:28:37.081Z,42.00
2019-01-24T01:29:36.987Z,40.50
2019-01-24T01:30:37.061Z,40.90
2019-01-24T01:31:36.808Z,40.20
2019-01-24T01:32:36.836Z,39.60
2019-01-24T01:33:36.633Z,39.40
2019-01-24T01:34:36.647Z,40.20
2019-01-24T01:35:36.461Z,40.80
2019-01-24T01:36:36.356Z,40.70
2019-01-24T01:37:36.457Z,40.60
2019-01-24T01:38:36.179Z,40.20
2019-01-24T01:39:36.089Z,41.40
2019-01-24T01:40:36.127Z,41.60
2019-01-24T01:41:35.911Z,40.00
2019-01-24T01:42:35.823Z,38.20
2019-01-24T01:43:35.882Z,38.40
2019-01-24T01:44:35.650Z,38.70
2019-01-24T01:45:35.568Z,39.90
2019-01-24T01:46:35.497Z,40.20
2019-01-24T01:47:35.370Z,39.80
2019-01-24T01:48:35.299Z,39.80
2019-01-24T01:49:35.190Z,40.40
2019-01-24T01:50:35.159Z,41.40
2019-01-24T01:51:35.010Z,39.80
2019-01-24T01:52:35.122Z,39.50
2019-01-24T01:53:34.852Z,37.60
2019-01-24T01:54:34.955Z,37.90
2019-01-24T01:55:34.706Z,40.60
2019-01-24T01:56:34.750Z,40.60
2019-01-24T01:57:34.492Z,40.10
2019-01-24T01:58:34.545Z,39.90
2019-01-24T01:59:34.292Z,40.60
2019-01-24T02:00:34.221Z,42.70
2019-01-24T02:01:34.162Z,40.70
2019-01-24T02:02:34.024Z,40.30
2019-01-24T02:03:33.935Z,41.80
2019-01-24T02:04:33.977Z,41.10
2019-01-24T02:05:33.773Z,40.50
2019-01-24T02:06:33.666Z,42.40
2019-01-24T02:07:33.787Z,40.90
2019-01-24T02:08:33.484Z,31.80
2019-01-24T02:09:33.397Z,40.10
2019-01-24T02:10:33.442Z,41.50
2019-01-24T02:11:33.222Z,40.90
2019-01-24T02:12:33.125Z,41.30
2019-01-24T02:13:33.214Z,42.80
2019-01-24T02:14:32.946Z,41.10
2019-01-24T02:15:32.872Z,39.90
2019-01-24T02:16:32.823Z,43.30
2019-01-24T02:17:32.677Z,42.00
2019-01-24T02:18:32.596Z,41.40
2019-01-24T02:19:32.638Z,41.10
2019-01-24T02:20:32.427Z,40.60
2019-01-24T02:21:32.321Z,41.40
2019-01-24T02:22:32.247Z,42.90
2019-01-24T02:23:32.141Z,42.10
2019-01-24T02:24:32.069Z,42.00
2019-01-24T02:25:32.094Z,42.40
2019-01-24T02:26:31.877Z,40.80
2019-01-24T02:27:31.791Z,40.20
2019-01-24T02:28:31.882Z,41.10
2019-01-24T02:29:31.601Z,41.70
2019-01-24T02:30:31.525Z,42.90
2019-01-24T02:31:31.506Z,41.20
2019-01-24T02:32:31.334Z,41.60
2019-01-24T02:33:31.307Z,41.20
2019-01-24T02:34:31.154Z,40.60
2019-01-24T02:35:31.148Z,41.10
2019-01-24T02:36:30.979Z,39.40
2019-01-24T02:37:30.914Z,39.10
2019-01-24T02:38:30.797Z,41.00
2019-01-24T02:39:30.724Z,41.10
2019-01-24T02:40:30.629Z,40.90
2019-01-24T02:41:30.734Z,42.30
2019-01-24T02:42:30.438Z,42.00
2019-01-24T02:43:30.347Z,42.10
2019-01-24T02:44:30.350Z,41.40
2019-01-24T02:45:30.214Z,40.90
2019-01-24T02:46:30.154Z,40.90
2019-01-24T02:47:29.987Z,41.10
2019-01-24T02:48:29.967Z,41.70
2019-01-24T02:49:29.818Z,40.00
2019-01-24T02:50:29.775Z,41.90
2019-01-24T02:51:29.645Z,41.40
2019-01-24T02:52:29.579Z,39.80
2019-01-24T02:53:29.452Z,41.30
2019-01-24T02:54:29.390Z,40.60
2019-01-24T02:55:29.277Z,40.80
2019-01-24T02:56:29.198Z,40.40
2019-01-24T02:57:29.207Z,40.50
2019-01-24T02:58:29.003Z,40.20
2019-01-24T02:59:28.912Z,41.60
2019-01-24T03:00:29.022Z,42.20
2019-01-24T03:01:28.751Z,42.80
2019-01-24T03:02:28.828Z,42.40
2019-01-24T03:03:28.559Z,43.20
2019-01-24T03:04:28.639Z,43.40
2019-01-24T03:05:28.379Z,42.00
2019-01-24T03:06:28.475Z,43.80
2019-01-24T03:07:28.196Z,42.90
2019-01-24T03:08:28.255Z,42.70
2019-01-24T03:09:28.015Z,43.90
2019-01-24T03:10:28.064Z,43.00
2019-01-24T03:11:27.850Z,41.00
2019-01-24T03:12:27.869Z,42.50
2019-01-24T03:13:27.666Z,41.70
2019-01-24T03:14:27.689Z,41.30
2019-01-24T03:15:27.483Z,43.30
2019-01-24T03:16:27.521Z,42.60
2019-01-24T03:17:27.304Z,42.40
2019-01-24T03:18:27.296Z,43.50
2019-01-24T03:19:27.119Z,43.90
2019-01-24T03:20:27.107Z,42.10
2019-01-24T03:21:26.962Z,44.00
2019-01-24T03:22:26.911Z,44.40
2019-01-24T03:23:26.763Z,44.50
2019-01-24T03:24:26.721Z,46.30
2019-01-24T03:25:26.590Z,46.20
2019-01-24T03:26:26.511Z,49.00
2019-01-24T03:27:26.534Z,46.10
2019-01-24T03:28:26.316Z,43.50
2019-01-24T03:29:26.226Z,43.60
2019-01-24T03:30:26.353Z,41.90
2019-01-24T03:31:26.058Z,45.00
2019-01-24T03:32:25.966Z,44.00
2019-01-24T03:33:25.964Z,44.30
2019-01-24T03:34:25.780Z,44.10
2019-01-24T03:35:25.775Z,44.50
2019-01-24T03:36:25.613Z,44.70
2019-01-24T03:37:25.507Z,43.30
2019-01-24T03:38:25.587Z,43.70
2019-01-24T03:39:25.328Z,44.10
2019-01-24T03:40:25.240Z,43.60
2019-01-24T03:41:25.224Z,44.10
2019-01-24T03:42:25.055Z,44.40
2019-01-24T03:43:24.970Z,43.90
2019-01-24T03:44:25.017Z,44.20
2019-01-24T03:45:24.786Z,45.00
2019-01-24T03:46:24.715Z,44.30
2019-01-24T03:47:24.823Z,45.10
2019-01-24T03:48:24.513Z,44.80
2019-01-24T03:49:24.634Z,45.40
2019-01-24T03:50:24.338Z,45.20
2019-01-24T03:51:24.475Z,43.00
2019-01-24T03:52:24.159Z,44.90
2019-01-24T03:53:24.250Z,44.70
2019-01-24T03:54:23.983Z,45.00
2019-01-24T03:55:24.062Z,44.10
2019-01-24T03:59:26.990Z,43.30
2019-01-24T04:00:26.676Z,44.40
2019-01-24T04:01:26.599Z,43.00
2019-01-24T04:02:26.559Z,44.90
2019-01-24T04:03:26.416Z,46.20
2019-01-24T04:04:26.322Z,44.50
2019-01-24T04:05:26.379Z,44.80
2019-01-24T04:06:26.157Z,45.80
2019-01-24T04:07:26.048Z,45.50
2019-01-24T04:08:25.999Z,45.40
2019-01-24T04:09:25.868Z,46.20
2019-01-24T04:10:25.793Z,45.80
2019-01-24T04:11:25.710Z,45.50
2019-01-24T04:12:25.806Z,47.30
2019-01-24T04:13:25.513Z,46.50
2019-01-24T04:14:25.614Z,44.20
2019-01-24T04:15:25.339Z,47.80
2019-01-24T04:16:25.462Z,46.00
2019-01-24T04:17:25.149Z,45.70
2019-01-24T04:18:25.061Z,46.10
2019-01-24T04:19:25.034Z,45.60
2019-01-24T04:20:24.888Z,47.30
2019-01-24T04:21:24.803Z,47.10
2019-01-24T04:22:24.852Z,46.30
2019-01-24T04:23:24.617Z,45.70
2019-01-24T04:24:24.520Z,47.20
2019-01-24T04:25:24.460Z,46.10
2019-01-24T04:26:24.358Z,45.50
2019-01-24T04:27:24.254Z,44.60
2019-01-24T04:28:24.277Z,43.80
2019-01-24T04:29:24.075Z,44.10
2019-01-24T04:30:24.022Z,42.50
2019-01-24T04:31:24.120Z,44.30
2019-01-24T04:32:23.809Z,42.90
2019-01-24T04:33:23.709Z,44.10
2019-01-24T04:34:23.700Z,43.60
2019-01-24T04:35:23.531Z,45.10
2019-01-24T04:36:23.460Z,45.40
2019-01-24T04:37:23.516Z,45.10
2019-01-24T04:38:23.269Z,46.20
2019-01-24T04:39:23.324Z,45.10
2019-01-24T04:40:23.091Z,43.20
2019-01-24T04:41:23.005Z,45.60
2019-01-24T04:42:22.941Z,42.70
2019-01-24T04:43:22.816Z,41.80
2019-01-24T04:44:22.729Z,43.20
2019-01-24T04:45:22.750Z,43.40
2019-01-24T04:46:22.562Z,42.70
2019-01-24T04:47:22.467Z,42.60
2019-01-24T04:48:22.563Z,42.90
2019-01-24T04:49:22.276Z,44.30
2019-01-24T04:50:22.188Z,43.60
2019-01-24T04:51:22.216Z,43.60
2019-01-24T04:52:22.010Z,42.80
2019-01-24T04:53:21.934Z,42.80
2019-01-24T04:54:21.990Z,43.00
2019-01-24T04:55:21.740Z,44.70
2019-01-24T04:56:21.678Z,45.10
2019-01-24T04:57:21.635Z,44.40
2019-01-24T04:58:21.470Z,44.10
2019-01-24T04:59:21.375Z,43.90
2019-01-24T05:00:21.421Z,45.40
2019-01-24T05:01:21.204Z,44.30
2019-01-24T05:02:21.153Z,43.00
2019-01-24T05:03:21.236Z,45.70
2019-01-24T05:04:20.937Z,44.70
2019-01-24T05:05:27.660Z,44.80
2019-01-24T05:06:20.844Z,44.50
2019-01-24T05:07:20.673Z,44.90
2019-01-24T05:08:20.659Z,47.60
2019-01-24T05:09:20.473Z,45.10
2019-01-24T05:10:20.459Z,46.20
2019-01-24T05:11:20.295Z,45.30
2019-01-24T05:12:20.300Z,46.00
2019-01-24T05:13:20.112Z,46.90
2019-01-24T05:14:20.072Z,46.10
2019-01-24T05:15:19.935Z,45.50
2019-01-24T05:16:19.881Z,47.10
2019-01-24T05:17:19.774Z,46.30
2019-01-24T05:18:19.703Z,46.50
2019-01-24T05:19:19.592Z,45.60
2019-01-24T05:20:19.509Z,47.60
2019-01-24T05:21:19.401Z,46.90
2019-01-24T05:22:19.330Z,46.10
2019-01-24T05:23:19.313Z,45.50
2019-01-24T05:24:19.124Z,44.40
2019-01-24T05:25:19.049Z,44.80
2019-01-24T05:26:19.128Z,44.10
2019-01-24T05:27:18.873Z,45.30
2019-01-24T05:28:18.942Z,43.10
2019-01-24T05:29:18.673Z,43.60
2019-01-24T05:30:18.748Z,44.80
2019-01-24T05:31:18.495Z,43.00
2019-01-24T05:32:18.602Z,43.90
2019-01-24T05:33:18.320Z,41.30
2019-01-24T05:34:18.374Z,43.20
2019-01-24T05:35:18.140Z,43.50
2019-01-24T05:36:18.170Z,50.20
2019-01-24T05:37:17.966Z,61.50
2019-01-24T05:38:17.978Z,52.30
2019-01-24T05:39:17.777Z,43.10
2019-01-24T05:40:17.787Z,43.10
2019-01-24T05:41:17.594Z,45.00
2019-01-24T05:42:17.525Z,42.50
2019-01-24T05:43:17.617Z,43.50
2019-01-24T05:44:17.327Z,44.50
2019-01-24T05:45:17.241Z,41.70
2019-01-24T05:46:17.217Z,46.00
2019-01-24T05:47:17.067Z,45.30
2019-01-24T05:48:16.968Z,44.20
2019-01-24T05:49:17.108Z,44.50
2019-01-24T05:50:16.784Z,46.20
2019-01-24T05:51:18.963Z,43.70
2019-01-24T05:52:19.814Z,45.00
2019-01-24T05:53:16.725Z,44.60
2019-01-24T05:54:16.425Z,43.60
2019-01-24T05:55:16.455Z,44.30
2019-01-24T05:56:16.248Z,43.80
2019-01-24T05:57:16.182Z,44.10
2019-01-24T05:58:16.064Z,44.90
2019-01-24T05:59:15.984Z,46.30
2019-01-24T06:00:15.886Z,45.70
2019-01-24T06:01:15.798Z,45.10
2019-01-24T06:02:15.724Z,45.00
2019-01-24T06:03:15.689Z,46.30
2019-01-24T06:04:15.524Z,45.40
2019-01-24T06:05:15.506Z,44.80
2019-01-24T06:06:15.351Z,43.80
2019-01-24T06:07:15.283Z,43.60
2019-01-24T06:08:15.169Z,44.10
2019-01-24T06:09:15.114Z,45.80
2019-01-24T06:10:14.988Z,46.40
2019-01-24T06:11:14.921Z,45.40
2019-01-24T06:12:14.821Z,44.30
2019-01-24T06:13:14.716Z,44.80
2019-01-24T06:14:14.736Z,45.50
2019-01-24T06:15:14.538Z,43.30
2019-01-24T06:16:14.445Z,44.90
2019-01-24T06:17:14.473Z,44.10
2019-01-24T06:18:14.280Z,43.90
2019-01-24T06:19:14.243Z,46.40
2019-01-24T06:20:14.100Z,45.70
2019-01-24T06:21:14.000Z,43.50
2019-01-24T06:22:13.920Z,47.10
2019-01-24T06:23:13.863Z,44.00
2019-01-24T06:24:13.725Z,44.30
2019-01-24T06:25:13.869Z,45.20
2019-01-24T06:26:13.545Z,44.90
2019-01-24T06:27:13.480Z,43.90
2019-01-24T06:28:13.365Z,45.90
2019-01-24T06:29:13.276Z,45.40
2019-01-24T06:30:13.192Z,44.60
2019-01-24T06:31:13.098Z,46.90
2019-01-24T06:32:13.020Z,45.50
2019-01-24T06:33:12.922Z,44.30
2019-01-24T06:34:12.826Z,43.50
2019-01-24T06:35:12.735Z,45.90
2019-01-24T06:36:12.656Z,45.40
2019-01-24T06:37:12.564Z,43.70
2019-01-24T06:38:12.467Z,45.80
2019-01-24T06:39:12.378Z,46.30
2019-01-24T06:40:12.281Z,44.90
2019-01-24T06:41:12.197Z,45.30
2019-01-24T06:42:12.114Z,45.20
2019-01-24T06:43:12.006Z,44.50
2019-01-24T06:44:11.924Z,43.80
2019-01-24T06:45:11.828Z,44.80
2019-01-24T06:46:11.747Z,43.70
2019-01-24T06:47:11.666Z,44.30
2019-01-24T06:48:11.568Z,45.50
2019-01-24T06:49:11.481Z,43.40
2019-01-24T06:50:11.388Z,45.40
2019-01-24T06:51:11.290Z,45.00
2019-01-24T06:52:11.225Z,45.50
2019-01-24T06:53:11.109Z,46.70
2019-01-24T06:54:11.030Z,45.80
2019-01-24T06:55:10.931Z,44.40
2019-01-24T06:56:10.854Z,44.40
2019-01-24T06:57:10.784Z,45.70
2019-01-24T06:58:10.658Z,44.30
2019-01-24T06:59:10.575Z,45.40
2019-01-24T07:00:10.479Z,45.90
2019-01-24T07:01:10.385Z,45.30
2019-01-24T07:02:10.303Z,44.60
2019-01-24T07:03:10.226Z,45.60
2019-01-24T07:04:10.126Z,43.80
2019-01-24T07:05:10.034Z,45.00
2019-01-24T07:06:09.944Z,45.00
2019-01-24T07:07:09.856Z,45.50
2019-01-24T07:08:09.781Z,44.20
2019-01-24T07:09:09.669Z,44.80
2019-01-24T07:10:09.576Z,43.80
2019-01-24T07:11:09.493Z,45.70
2019-01-24T07:12:09.397Z,46.50
2019-01-24T07:13:09.326Z,45.60
2019-01-24T07:14:09.225Z,45.20
2019-01-24T07:15:09.137Z,45.80
2019-01-24T07:16:09.039Z,44.80
2019-01-24T07:17:08.966Z,46.30
2019-01-24T07:18:08.872Z,44.80
2019-01-24T07:19:08.765Z,45.80
2019-01-24T07:20:08.686Z,46.10
2019-01-24T07:21:08.583Z,45.30
2019-01-24T07:22:08.495Z,45.00
2019-01-24T07:23:08.445Z,44.50
2019-01-24T07:24:08.320Z,45.70
2019-01-24T07:25:08.235Z,44.40
2019-01-24T07:26:08.173Z,45.30
2019-01-24T07:27:08.059Z,44.90
2019-01-24T07:28:07.981Z,44.70
2019-01-24T07:29:07.863Z,44.70
2019-01-24T07:30:07.785Z,45.10
2019-01-24T07:31:07.688Z,47.60
2019-01-24T07:32:07.603Z,46.80
2019-01-24T07:33:07.524Z,44.40
2019-01-24T07:34:07.414Z,43.80
2019-01-24T07:35:07.330Z,43.90
2019-01-24T07:36:07.234Z,43.30
2019-01-24T07:37:07.171Z,43.50
2019-01-24T07:38:07.071Z,45.30
2019-01-24T07:39:06.981Z,46.00
2019-01-24T07:40:06.885Z,44.50
2019-01-24T07:41:06.784Z,44.80
2019-01-24T07:42:06.695Z,44.00
2019-01-24T07:43:06.629Z,44.60
2019-01-24T07:44:06.519Z,46.30
2019-01-24T07:45:06.433Z,43.90
2019-01-24T07:46:06.337Z,43.40
2019-01-24T07:47:06.252Z,45.50
2019-01-24T07:48:06.171Z,43.60
2019-01-24T07:49:06.067Z,46.10
2019-01-24T07:50:05.983Z,45.00
2019-01-24T07:51:05.888Z,45.20
2019-01-24T07:52:05.798Z,46.50
2019-01-24T07:53:05.725Z,44.40
2019-01-24T07:54:05.616Z,45.70
2019-01-24T07:55:05.536Z,45.90
2019-01-24T07:56:05.449Z,46.70
2019-01-24T07:57:05.348Z,45.10
2019-01-24T07:58:05.272Z,45.80
2019-01-24T07:59:05.173Z,45.70
2019-01-24T08:00:05.078Z,45.00
2019-01-24T08:01:04.988Z,44.90
2019-01-24T08:02:04.897Z,44.20
2019-01-24T08:03:04.827Z,45.50
2019-01-24T08:04:04.718Z,44.60
2019-01-24T08:05:04.622Z,44.10
2019-01-24T08:06:09.023Z,45.40
2019-01-24T08:07:04.442Z,43.70
2019-01-24T08:08:04.373Z,44.40
2019-01-24T08:09:04.279Z,43.60
2019-01-24T08:10:04.198Z,43.00
2019-01-24T08:11:04.100Z,43.00
2019-01-24T08:12:04.014Z,44.20
2019-01-24T08:13:03.931Z,45.50
2019-01-24T08:14:03.812Z,44.80
2019-01-24T08:15:03.737Z,45.60
2019-01-24T08:16:03.636Z,44.40
2019-01-24T08:17:03.565Z,45.50
2019-01-24T08:18:03.471Z,46.00
2019-01-24T08:19:03.366Z,45.80
2019-01-24T08:20:03.280Z,47.40
2019-01-24T08:21:03.185Z,43.60
2019-01-24T08:22:03.090Z,42.90
2019-01-24T08:23:03.028Z,45.00
2019-01-24T08:24:02.915Z,44.90
2019-01-24T08:25:02.818Z,44.70
2019-01-24T08:26:02.743Z,44.30
2019-01-24T08:27:02.647Z,45.60
2019-01-24T08:28:02.564Z,45.00
2019-01-24T08:29:02.467Z,45.20
2019-01-24T08:30:02.371Z,45.20
2019-01-24T08:31:02.290Z,46.10
2019-01-24T08:32:02.207Z,46.60
2019-01-24T08:33:02.117Z,45.40
2019-01-24T08:34:02.014Z,46.30
2019-01-24T08:35:01.937Z,44.40
2019-01-24T08:36:01.834Z,47.50
2019-01-24T08:37:01.744Z,46.90
2019-01-24T08:38:01.663Z,46.50
2019-01-24T08:39:01.577Z,46.60
2019-01-24T08:40:01.544Z,48.20
2019-01-24T08:41:01.383Z,45.70
2019-01-24T08:42:01.299Z,45.50
2019-01-24T08:43:01.209Z,47.60
2019-01-24T08:44:01.130Z,46.60
2019-01-24T08:45:01.035Z,47.50
2019-01-24T08:46:00.939Z,47.80
2019-01-24T08:47:00.852Z,46.50
2019-01-24T08:48:00.757Z,47.00
2019-01-24T08:49:00.689Z,49.60
2019-01-24T08:50:00.576Z,45.60
2019-01-24T08:51:00.493Z,46.40
2019-01-24T08:52:00.395Z,47.80
2019-01-24T08:53:00.302Z,47.50
2019-01-24T08:54:00.238Z,45.70
2019-01-24T08:55:00.172Z,46.20
2019-01-24T08:56:00.035Z,47.00
2019-01-24T08:56:59.949Z,46.00
2019-01-24T08:57:59.855Z,46.30
2019-01-24T08:58:59.779Z,46.00
2019-01-24T08:59:59.685Z,45.90
2019-01-24T09:00:59.643Z,45.50
2019-01-24T09:01:59.503Z,47.90
2019-01-24T09:02:59.419Z,48.20
2019-01-24T09:03:59.331Z,48.00
2019-01-24T09:04:59.226Z,46.90
2019-01-24T09:05:59.144Z,48.30
2019-01-24T09:06:59.054Z,47.90
2019-01-24T09:07:58.962Z,49.10
2019-01-24T09:08:58.897Z,50.50
2019-01-24T09:09:59.180Z,48.20
2019-01-24T09:10:58.692Z,48.30
2019-01-24T09:11:58.614Z,49.50
2019-01-24T09:12:58.510Z,50.10
2019-01-24T09:13:58.436Z,49.20
2019-01-24T09:14:58.341Z,50.80
2019-01-24T09:15:58.251Z,49.10
2019-01-24T09:16:58.153Z,50.90
2019-01-24T09:17:58.071Z,52.10
2019-01-24T09:18:57.997Z,52.10
2019-01-24T09:19:57.902Z,52.00
2019-01-24T09:20:57.793Z,52.00
2019-01-24T09:21:57.713Z,51.90
2019-01-24T09:22:57.617Z,53.70
2019-01-24T09:23:57.550Z,52.90
2019-01-24T09:24:57.431Z,50.30
2019-01-24T09:25:57.350Z,49.90
2019-01-24T09:26:57.258Z,51.20
2019-01-24T09:27:57.183Z,52.60
2019-01-24T09:28:57.090Z,51.70
2019-01-24T09:29:56.992Z,51.70
2019-01-24T09:30:56.908Z,52.90
2019-01-24T09:31:56.814Z,51.70
2019-01-24T09:32:56.719Z,50.70
2019-01-24T09:33:56.656Z,49.90
2019-01-24T09:34:56.541Z,48.90
2019-01-24T09:35:56.461Z,50.70
2019-01-24T09:36:56.364Z,50.90
2019-01-24T09:37:56.279Z,52.50
2019-01-24T09:38:56.199Z,48.90
2019-01-24T09:39:56.104Z,51.00
2019-01-24T09:40:56.011Z,49.70
2019-01-24T09:41:55.923Z,48.10
2019-01-24T09:42:55.830Z,51.00
2019-01-24T09:43:55.756Z,49.60
2019-01-24T09:44:55.655Z,49.60
2019-01-24T09:45:55.561Z,52.20
2019-01-24T09:46:55.475Z,51.10
2019-01-24T09:47:55.399Z,53.30
2019-01-24T09:48:55.307Z,50.60
2019-01-24T09:49:55.207Z,49.40
2019-01-24T09:50:55.119Z,51.10
2019-01-24T09:51:55.027Z,52.30
2019-01-24T09:52:54.934Z,51.80
2019-01-24T09:53:54.866Z,51.50
2019-01-24T09:54:54.756Z,51.70
2019-01-24T09:55:54.666Z,51.10
2019-01-24T09:56:54.587Z,49.80
2019-01-24T09:57:54.487Z,49.40
2019-01-24T09:58:54.413Z,49.50
2019-01-24T09:59:54.324Z,51.10
2019-01-24T10:00:54.226Z,50.70
2019-01-24T10:01:54.141Z,50.40
2019-01-24T10:02:54.041Z,50.20
2019-01-24T10:03:53.977Z,51.30
2019-01-24T10:04:53.867Z,50.60
2019-01-24T10:05:53.782Z,48.50
2019-01-24T10:06:53.688Z,50.10
2019-01-24T10:07:53.608Z,50.70
2019-01-24T10:08:53.527Z,50.70
2019-01-24T10:09:53.420Z,49.30
2019-01-24T10:10:53.341Z,50.00
2019-01-24T10:11:53.243Z,47.80
2019-01-24T10:12:53.164Z,49.40
2019-01-24T10:13:53.106Z,51.90
2019-01-24T10:14:52.991Z,51.10
2019-01-24T10:15:52.901Z,51.60
2019-01-24T10:16:52.817Z,49.40
2019-01-24T10:17:52.744Z,50.20
2019-01-24T10:18:52.626Z,50.90
2019-01-24T10:19:52.555Z,52.10
2019-01-24T10:20:52.455Z,49.60
2019-01-24T10:21:52.369Z,49.50
2019-01-24T10:22:52.274Z,49.00
2019-01-24T10:23:52.188Z,50.90
2019-01-24T10:24:52.113Z,50.80
2019-01-24T10:25:52.006Z,49.70
2019-01-24T10:26:51.926Z,51.30
2019-01-24T10:27:51.829Z,51.10
2019-01-24T10:28:51.741Z,49.80
2019-01-24T10:29:51.680Z,49.80
2019-01-24T10:30:51.568Z,50.70
2019-01-24T10:31:51.475Z,51.30
2019-01-24T10:32:51.390Z,49.30
2019-01-24T10:33:51.302Z,48.60
2019-01-24T10:34:51.221Z,51.00
2019-01-24T10:35:51.135Z,52.00
2019-01-24T10:36:51.030Z,50.60
2019-01-24T10:37:50.964Z,51.20
2019-01-24T10:38:50.853Z,51.90
2019-01-24T10:39:50.792Z,51.70
2019-01-24T10:40:50.676Z,53.50
2019-01-24T10:41:50.594Z,51.80
2019-01-24T10:42:50.526Z,52.20
2019-01-24T10:43:50.416Z,52.10
2019-01-24T10:44:50.337Z,54.00
2019-01-24T10:45:50.244Z,51.70
2019-01-24T10:46:50.150Z,53.50
2019-01-24T10:47:50.062Z,53.70
2019-01-24T10:48:49.966Z,53.70
2019-01-24T10:49:49.900Z,52.00
2019-01-24T10:50:49.795Z,52.00
2019-01-24T10:51:49.711Z,51.50
2019-01-24T10:52:49.622Z,52.40
2019-01-24T10:53:49.532Z,52.20
2019-01-24T10:54:49.460Z,52.00
2019-01-24T10:55:49.358Z,52.60
2019-01-24T10:56:49.257Z,52.50
2019-01-24T10:57:49.182Z,54.40
2019-01-24T10:58:49.089Z,52.10
2019-01-24T10:59:49.015Z,53.70
2019-01-24T11:00:48.919Z,52.30
2019-01-24T11:01:48.816Z,52.10
2019-01-24T11:02:48.729Z,54.50
2019-01-24T11:03:48.644Z,51.70
2019-01-24T11:04:48.572Z,52.30
2019-01-24T11:05:48.468Z,53.40
2019-01-24T11:06:50.114Z,52.80
2019-01-24T11:07:48.289Z,53.60
2019-01-24T11:08:48.211Z,54.00
2019-01-24T11:09:48.129Z,53.30
2019-01-24T11:10:48.022Z,53.70
2019-01-24T11:11:47.939Z,52.60
2019-01-24T11:12:47.841Z,52.10
2019-01-24T11:13:47.759Z,51.70
2019-01-24T11:14:47.692Z,51.80
2019-01-24T11:15:47.580Z,52.70
2019-01-24T11:16:47.494Z,53.30
2019-01-24T11:17:47.411Z,52.80
2019-01-24T11:18:47.315Z,53.80
2019-01-24T11:19:47.251Z,53.00
2019-01-24T11:20:47.136Z,53.30
2019-01-24T11:21:47.076Z,53.80
2019-01-24T11:22:46.961Z,53.70
2019-01-24T11:23:46.878Z,55.00
2019-01-24T11:24:46.799Z,56.20
2019-01-24T11:25:46.722Z,55.30
2019-01-24T11:26:46.611Z,53.80
2019-01-24T11:27:46.518Z,52.40
2019-01-24T11:28:46.429Z,54.50
2019-01-24T11:29:46.354Z,55.20
2019-01-24T11:30:46.258Z,54.20
2019-01-24T11:31:46.163Z,55.80
2019-01-24T11:32:46.072Z,55.40
2019-01-24T11:33:45.981Z,53.80
2019-01-24T11:34:45.908Z,55.40
2019-01-24T11:35:45.803Z,54.80
2019-01-24T11:36:45.717Z,56.10
2019-01-24T11:37:45.626Z,55.60
2019-01-24T11:38:45.544Z,56.40
2019-01-24T11:39:45.459Z,56.00
2019-01-24T11:40:45.365Z,59.00
2019-01-24T11:41:45.273Z,58.70
2019-01-24T11:42:45.184Z,60.60
2019-01-24T11:43:45.101Z,62.00
2019-01-24T11:44:45.028Z,61.20
2019-01-24T11:45:44.913Z,63.00
2019-01-24T11:46:44.839Z,61.20
2019-01-24T11:47:44.738Z,65.50
2019-01-24T11:48:44.654Z,62.90
2019-01-24T11:49:44.577Z,60.70
2019-01-24T11:50:44.471Z,64.00
2019-01-24T11:51:44.391Z,63.90
2019-01-24T11:52:44.292Z,63.50
2019-01-24T11:53:44.200Z,64.80
2019-01-24T11:54:44.137Z,63.10
2019-01-24T11:55:44.029Z,64.90
2019-01-24T11:56:43.949Z,64.60
2019-01-24T11:57:43.847Z,62.70
2019-01-24T11:58:43.773Z,63.20
2019-01-24T11:59:43.683Z,62.90
2019-01-24T12:00:43.587Z,63.00
2019-01-24T12:01:43.503Z,61.90
2019-01-24T12:02:43.406Z,62.70
2019-01-24T12:03:43.317Z,62.00
2019-01-24T12:04:43.235Z,62.00
2019-01-24T12:05:43.148Z,61.00
2019-01-24T12:06:43.047Z,63.80
2019-01-24T12:07:42.953Z,63.80
2019-01-24T12:08:42.871Z,65.00
2019-01-24T12:09:42.788Z,65.40
2019-01-24T12:10:42.700Z,64.50
2019-01-24T12:11:42.603Z,64.10
2019-01-24T12:12:42.516Z,65.90
2019-01-24T12:13:42.423Z,64.50
2019-01-24T12:14:42.346Z,65.70
2019-01-24T12:15:42.264Z,63.70
2019-01-24T12:16:42.153Z,63.20
2019-01-24T12:17:42.078Z,62.20
2019-01-24T12:18:41.975Z,63.70
2019-01-24T12:19:41.888Z,62.00
2019-01-24T12:20:41.817Z,61.90
2019-01-24T12:21:41.719Z,61.10
2019-01-24T12:22:41.628Z,61.80
2019-01-24T12:23:41.534Z,61.20
2019-01-24T12:24:41.447Z,59.80
2019-01-24T12:25:41.373Z,59.60
2019-01-24T12:26:41.273Z,58.20
2019-01-24T12:27:41.189Z,58.50
2019-01-24T12:28:41.090Z,59.30
2019-01-24T12:29:41.002Z,58.90
2019-01-24T12:30:40.923Z,58.40
2019-01-24T12:31:40.838Z,59.40
2019-01-24T12:32:40.739Z,59.50
2019-01-24T12:33:40.642Z,58.80
2019-01-24T12:34:40.569Z,59.30
2019-01-24T12:35:40.482Z,58.90
2019-01-24T12:36:40.376Z,58.40
2019-01-24T12:37:40.287Z,59.40
2019-01-24T12:38:40.210Z,58.60
2019-01-24T12:39:40.115Z,58.80
2019-01-24T12:40:40.041Z,58.30
2019-01-24T12:41:39.933Z,61.40
2019-01-24T12:42:39.853Z,63.70
2019-01-24T12:43:39.760Z,61.60
2019-01-24T12:44:39.688Z,61.70
2019-01-24T12:45:39.593Z,64.20
2019-01-24T12:46:39.498Z,63.70
2019-01-24T12:47:39.404Z,62.00
2019-01-24T12:48:39.330Z,62.10
2019-01-24T12:49:39.234Z,61.60
2019-01-24T12:50:39.164Z,60.60
2019-01-24T12:51:39.064Z,60.80
2019-01-24T12:52:38.961Z,60.90
2019-01-24T12:53:38.882Z,59.50
2019-01-24T12:54:38.797Z,59.00